Berabevu, Argentina
Current Conditions -  °F | °C
As of 11:00 PM on Saturday 22 Nov 2014 (Local Time) from SAAR Reporting Station
Clear Clear  
Wind Chill: 63°   Ceiling: Unl
Heat Index: 63°   Visibility: 6mi
Dew Point: 55°   Wind: 2mph
Humidity: 77%   Direction: 290°WNW
Pressure: 29.91"   Gusts: NA
Location:  33.48°S, 61.99°W
Report Text: SAAR 230200Z 29002KT CAVOK 17/13 Q1013
Loading
Personal Weather Stations






























Interactive Weather Map New forecast layout! Learn more

10-Day Weather Forecast

Advertisements
Track Severe Weather on mobile